createdAt,value
2018-01-31T01:58:32.586Z,0
2018-01-31T02:08:32.713Z,0
2018-01-31T02:18:32.592Z,0
2018-01-31T02:28:32.806Z,0
2018-01-31T02:38:32.688Z,0
2018-01-31T02:48:32.705Z,0
2018-01-31T02:58:32.684Z,0
2018-01-31T03:08:32.640Z,0
2018-01-31T03:18:32.756Z,0
2018-01-31T03:28:32.714Z,0
2018-01-31T03:38:32.812Z,0
2018-01-31T03:48:32.742Z,0
2018-01-31T03:58:32.790Z,0
2018-01-31T04:08:32.785Z,0
2018-01-31T04:18:32.803Z,0
2018-01-31T04:28:32.789Z,0
2018-01-31T04:38:32.816Z,0
2018-01-31T04:48:32.803Z,0
2018-01-31T04:58:32.855Z,0
2018-01-31T05:08:32.741Z,0
2018-01-31T05:18:32.712Z,0
2018-01-31T05:28:32.754Z,0
2018-01-31T05:38:32.772Z,0
2018-01-31T05:48:32.834Z,0
2018-01-31T05:58:32.783Z,0
2018-01-31T06:08:32.839Z,0
2018-01-31T06:18:32.811Z,0
2018-01-31T06:28:32.942Z,0
2018-01-31T06:38:32.879Z,0
2018-01-31T06:48:32.944Z,0
2018-01-31T06:58:32.916Z,0
2018-01-31T07:08:32.990Z,0
2018-01-31T07:18:32.981Z,0
2018-01-31T07:28:32.986Z,0
2018-01-31T07:38:33.018Z,5
2018-01-31T07:48:32.998Z,15
2018-01-31T07:58:33.277Z,20
2018-01-31T08:08:33.103Z,10
2018-01-31T08:18:33.272Z,5
2018-01-31T08:28:33.011Z,10
2018-01-31T08:38:32.985Z,20
2018-01-31T08:48:33.017Z,20
2018-01-31T08:58:33.048Z,30
2018-01-31T09:08:33.028Z,10
2018-01-31T09:18:33.131Z,60
2018-01-31T09:28:32.999Z,80
2018-01-31T09:38:33.114Z,30
2018-01-31T09:48:33.074Z,25
2018-01-31T09:58:33.075Z,40
2018-01-31T10:08:33.204Z,20
2018-01-31T10:18:33.157Z,25
2018-01-31T10:28:33.128Z,15
2018-01-31T10:38:33.166Z,25
2018-01-31T10:48:33.081Z,30
2018-01-31T10:58:33.128Z,35
2018-01-31T11:08:33.374Z,30
2018-01-31T11:18:33.206Z,40
2018-01-31T11:28:33.143Z,70
2018-01-31T11:38:33.259Z,30
2018-01-31T11:48:33.175Z,60
2018-01-31T11:58:33.170Z,50
2018-01-31T12:08:33.263Z,20
2018-01-31T12:18:33.273Z,20
2018-01-31T12:28:33.299Z,20
2018-01-31T12:38:33.222Z,25
2018-01-31T12:48:33.269Z,45
2018-01-31T12:58:33.230Z,50
2018-01-31T13:08:33.267Z,40
2018-01-31T13:18:33.273Z,55
2018-01-31T13:28:33.257Z,45
2018-01-31T13:38:33.291Z,40
2018-01-31T13:48:33.410Z,30
2018-01-31T13:58:33.301Z,30
2018-01-31T14:08:33.303Z,40
2018-01-31T14:18:33.318Z,20
2018-01-31T14:28:33.313Z,30
2018-01-31T14:38:33.362Z,25
2018-01-31T14:48:34.613Z,10
2018-01-31T14:58:33.468Z,5
2018-01-31T15:08:33.353Z,20
2018-01-31T15:18:33.436Z,15
2018-01-31T15:28:33.329Z,5
2018-01-31T15:38:33.356Z,0
2018-01-31T15:48:33.714Z,0
2018-01-31T15:58:33.337Z,0
2018-01-31T16:08:33.474Z,0
2018-01-31T16:18:33.367Z,0
2018-01-31T16:28:33.379Z,0
2018-01-31T16:38:33.403Z,0
2018-01-31T16:48:34.065Z,0
2018-01-31T16:58:33.481Z,0
2018-01-31T17:08:33.478Z,0
2018-01-31T17:18:33.453Z,0
2018-01-31T17:28:33.506Z,0
2018-01-31T17:38:33.458Z,0
2018-01-31T17:59:20.789Z,0
2018-01-31T18:00:01.435Z,0
2018-01-31T18:10:02.539Z,0
2018-01-31T18:20:01.577Z,0
2018-01-31T18:30:01.570Z,0
2018-01-31T18:40:06.192Z,0
2018-01-31T18:50:01.517Z,0
2018-01-31T19:00:01.524Z,0
2018-01-31T19:10:03.479Z,0
2018-01-31T19:20:03.652Z,0
2018-01-31T19:30:02.656Z,0
2018-01-31T19:40:02.627Z,0
2018-01-31T19:50:01.583Z,0
2018-01-31T20:00:06.934Z,0
2018-01-31T20:10:01.701Z,0
2018-01-31T20:20:01.557Z,0
2018-01-31T20:30:01.707Z,0
2018-01-31T20:40:02.683Z,0
2018-01-31T20:50:01.658Z,0
2018-01-31T21:00:01.759Z,0
2018-01-31T21:10:01.621Z,0
2018-01-31T21:20:01.666Z,0
2018-01-31T21:40:47.031Z,0
2018-01-31T21:41:27.726Z,0
2018-01-31T21:51:28.103Z,0
2018-01-31T22:01:27.854Z,0
2018-01-31T22:11:27.796Z,0
2018-01-31T22:21:27.895Z,0
2018-01-31T22:31:27.878Z,0
2018-01-31T22:41:27.873Z,0
2018-01-31T22:51:27.816Z,0
2018-01-31T23:01:27.865Z,0
2018-01-31T23:11:27.959Z,0
2018-01-31T23:21:27.863Z,0
2018-01-31T23:31:27.904Z,0
2018-01-31T23:41:27.809Z,0
2018-01-31T23:51:27.874Z,0
